Time;durP1;ratioP1;P1;durP2;ratioP2;P2;SDS_P1;SDS_P2;PMS_P1;PMS_P2;Temp;Humidity;BMP_temperature;BMP_pressure;BME280_temperature;BME280_humidity;BME280_pressure;Samples;Min_cycle;Max_cycle;Signal;HPM_P1;HPM_P2
2022/03/12 00:00:18;;;;;;;26.73;11.20;;;5.40;53.60;;;;;;5093770;28;20199;-79
2022/03/12 00:02:44;;;;;;;25.33;12.50;;;5.40;53.70;;;;;;5089019;28;20313;-76
2022/03/12 00:05:11;;;;;;;21.37;11.17;;;5.40;54.10;;;;;;5080833;28;20508;-78
2022/03/12 00:07:40;;;;;;;19.97;11.87;;;5.40;54.20;;;;;;5091236;28;20417;-77
2022/03/12 00:10:07;;;;;;;23.10;11.60;;;5.40;54.40;;;;;;5092274;28;20456;-78
2022/03/12 00:12:37;;;;;;;24.37;12.30;;;5.40;54.40;;;;;;5092153;28;20429;-76
2022/03/12 00:15:09;;;;;;;20.87;11.00;;;5.40;54.50;;;;;;5091118;28;20425;-78
2022/03/12 00:17:40;;;;;;;24.10;11.90;;;5.40;54.50;;;;;;5095571;28;20527;-77
2022/03/12 00:20:11;;;;;;;24.00;10.33;;;5.40;54.60;;;;;;5093168;28;20498;-76
2022/03/12 00:22:45;;;;;;;32.20;11.50;;;5.40;54.80;;;;;;5090651;28;20516;-76
2022/03/12 00:25:13;;;;;;;23.07;11.50;;;5.40;54.50;;;;;;5091330;28;20772;-77
2022/03/12 00:27:41;;;;;;;21.43;11.70;;;5.30;54.10;;;;;;5091311;28;20413;-79
2022/03/12 00:30:09;;;;;;;25.20;11.53;;;5.30;54.40;;;;;;5090462;28;20444;-77
2022/03/12 00:32:37;;;;;;;18.77;11.03;;;5.30;54.00;;;;;;5086942;28;20421;-77
2022/03/12 00:35:08;;;;;;;24.13;11.90;;;5.30;54.20;;;;;;5089960;28;20871;-77
2022/03/12 00:37:35;;;;;;;24.10;12.57;;;5.30;54.90;;;;;;5089582;28;20476;-75
2022/03/12 00:40:00;;;;;;;33.47;13.53;;;5.30;55.00;;;;;;5074450;28;21295;-75
2022/03/12 00:42:26;;;;;;;29.57;12.77;;;5.30;55.60;;;;;;5077054;28;20448;-75
2022/03/12 00:44:52;;;;;;;22.37;12.60;;;5.30;55.00;;;;;;5076305;28;20183;-75
2022/03/12 00:47:17;;;;;;;22.33;11.53;;;5.40;54.50;;;;;;5089391;28;20805;-77
2022/03/12 00:49:45;;;;;;;24.33;11.90;;;5.30;53.80;;;;;;5094111;28;20226;-78
2022/03/12 00:52:11;;;;;;;20.03;11.10;;;5.40;53.60;;;;;;5075296;28;20179;-78
2022/03/12 00:54:37;;;;;;;19.07;11.23;;;5.40;53.40;;;;;;5090974;28;20465;-76
2022/03/12 00:57:03;;;;;;;27.10;12.63;;;5.30;53.70;;;;;;5090120;28;20179;-79
2022/03/12 00:59:28;;;;;;;26.47;12.30;;;5.30;54.10;;;;;;5090742;28;20195;-76
2022/03/12 01:01:54;;;;;;;27.87;12.93;;;5.30;54.40;;;;;;5089607;28;20421;-76
2022/03/12 01:04:20;;;;;;;28.70;13.90;;;5.40;54.10;;;;;;5090270;28;20696;-76
2022/03/12 01:06:46;;;;;;;21.90;12.73;;;5.30;54.10;;;;;;5090070;28;20423;-78
2022/03/12 01:09:13;;;;;;;22.10;11.70;;;5.40;54.20;;;;;;5089642;28;20660;-78
2022/03/12 01:11:40;;;;;;;19.47;11.30;;;5.40;54.20;;;;;;5089946;28;20425;-78
2022/03/12 01:14:08;;;;;;;22.67;11.60;;;5.50;54.20;;;;;;5073940;28;20692;-77
2022/03/12 01:16:34;;;;;;;23.90;11.50;;;5.50;54.00;;;;;;5090135;28;20833;-78
2022/03/12 01:18:59;;;;;;;22.80;11.67;;;5.60;53.60;;;;;;5075490;28;20417;-77
2022/03/12 01:21:26;;;;;;;23.30;11.03;;;5.50;51.80;;;;;;5083793;28;20941;-78
2022/03/12 01:23:52;;;;;;;23.47;12.37;;;5.60;51.70;;;;;;5090429;28;20202;-78
2022/03/12 01:26:20;;;;;;;30.07;12.53;;;5.70;52.00;;;;;;5090217;28;20570;-79
2022/03/12 01:28:46;;;;;;;26.73;13.57;;;5.70;52.90;;;;;;5082139;28;20425;-78
2022/03/12 01:31:12;;;;;;;23.40;12.73;;;5.70;53.30;;;;;;5091130;28;20500;-79
2022/03/12 01:33:38;;;;;;;24.57;12.43;;;5.70;52.90;;;;;;5091499;28;20540;-77
2022/03/12 01:36:05;;;;;;;26.27;12.70;;;5.70;53.00;;;;;;5090828;28;20533;-79
2022/03/12 01:38:46;;;;;;;21.90;11.27;;;5.70;52.80;;;;;;5090711;28;20417;-79
2022/03/12 01:41:12;;;;;;;27.60;12.50;;;5.70;51.70;;;;;;5092004;28;20516;-77
2022/03/12 01:43:38;;;;;;;25.30;11.77;;;5.60;52.40;;;;;;5092856;28;20965;-78
2022/03/12 01:46:09;;;;;;;26.33;12.67;;;5.70;52.20;;;;;;5081631;28;20413;-79
2022/03/12 01:48:36;;;;;;;22.97;11.80;;;5.70;52.00;;;;;;5091131;28;20448;-77
2022/03/12 01:51:02;;;;;;;27.80;12.30;;;5.70;51.60;;;;;;5091802;28;20472;-79
2022/03/12 01:53:28;;;;;;;21.27;10.70;;;5.70;51.30;;;;;;5083766;28;20543;-78
2022/03/12 01:55:54;;;;;;;22.90;10.73;;;5.70;50.20;;;;;;5085749;28;20445;-78
2022/03/12 01:58:20;;;;;;;25.50;12.37;;;5.60;50.30;;;;;;5094987;28;20171;-77
2022/03/12 02:00:51;;;;;;;21.37;10.30;;;5.70;50.50;;;;;;5095411;28;20843;-77
2022/03/12 02:03:23;;;;;;;21.33;11.17;;;5.70;49.30;;;;;;5089132;28;20421;-76
2022/03/12 02:05:49;;;;;;;18.93;10.70;;;5.70;49.10;;;;;;5092873;28;20424;-75
2022/03/12 02:08:16;;;;;;;22.50;10.53;;;5.70;49.30;;;;;;5099840;28;20409;-77
2022/03/12 02:10:43;;;;;;;21.77;11.77;;;5.70;49.30;;;;;;5098344;28;20445;-76
2022/03/12 02:13:10;;;;;;;19.00;10.87;;;5.70;48.90;;;;;;5096469;28;20461;-77
2022/03/12 02:15:36;;;;;;;18.23;10.80;;;5.70;48.60;;;;;;5098327;28;20414;-78
2022/03/12 02:18:02;;;;;;;21.10;10.97;;;5.60;48.70;;;;;;5097342;28;20433;-76
2022/03/12 02:20:28;;;;;;;20.77;11.00;;;5.60;49.00;;;;;;5098327;28;20529;-76
2022/03/12 02:22:59;;;;;;;26.47;11.20;;;5.50;49.00;;;;;;5098925;28;20449;-76
2022/03/12 02:25:30;;;;;;;19.93;9.67;;;5.50;49.10;;;;;;5101064;28;20421;-76
2022/03/12 02:27:58;;;;;;;19.13;10.37;;;5.40;49.10;;;;;;5100425;28;20437;-76
2022/03/12 02:30:34;;;;;;;19.70;11.20;;;5.30;49.40;;;;;;5098605;28;20448;-77
2022/03/12 02:33:04;;;;;;;21.13;10.50;;;5.30;49.50;;;;;;5093750;28;20464;-76
2022/03/12 02:35:34;;;;;;;21.10;9.93;;;5.30;49.50;;;;;;5087948;28;20448;-75
2022/03/12 02:38:01;;;;;;;21.17;11.30;;;5.30;49.50;;;;;;5076989;28;20433;-76
2022/03/12 02:40:27;;;;;;;22.70;11.10;;;5.20;49.40;;;;;;5093906;28;20445;-76
2022/03/12 02:42:57;;;;;;;23.30;10.77;;;5.20;49.50;;;;;;5093758;28;20525;-76
2022/03/12 02:45:26;;;;;;;28.97;11.10;;;5.20;49.70;;;;;;5093538;28;20500;-77
2022/03/12 02:47:55;;;;;;;19.87;10.93;;;5.20;50.10;;;;;;5092815;28;20499;-78
2022/03/12 02:50:23;;;;;;;23.90;11.60;;;5.20;50.90;;;;;;5092631;28;20441;-76
2022/03/12 02:52:49;;;;;;;22.57;12.20;;;5.20;51.30;;;;;;5090896;28;20429;-77
2022/03/12 02:55:24;;;;;;;21.20;11.40;;;5.20;51.70;;;;;;5078188;28;20429;-77
2022/03/12 02:57:51;;;;;;;22.50;10.70;;;5.30;51.80;;;;;;5092590;28;20412;-77
2022/03/12 03:00:19;;;;;;;23.57;11.30;;;5.40;51.80;;;;;;5093127;28;20520;-75
2022/03/12 03:02:53;;;;;;;22.17;10.90;;;5.50;51.80;;;;;;5091976;28;20421;-77
2022/03/12 03:05:33;;;;;;;30.20;12.10;;;5.40;52.00;;;;;;5085809;28;20461;-75
2022/03/12 03:08:03;;;;;;;22.13;11.20;;;5.40;51.80;;;;;;5091796;28;20477;-76
2022/03/12 03:10:34;;;;;;;23.93;11.47;;;5.30;52.00;;;;;;5093718;28;20512;-76
2022/03/12 03:13:20;;;;;;;23.20;11.60;;;5.30;52.00;;;;;;5092950;28;20552;-77
2022/03/12 03:15:55;;;;;;;20.70;11.10;;;5.40;52.10;;;;;;5093005;28;20432;-77
2022/03/12 03:18:24;;;;;;;23.53;11.30;;;5.40;52.10;;;;;;5084927;28;20409;-75
2022/03/12 03:20:53;;;;;;;23.07;12.27;;;5.40;52.00;;;;;;5092232;28;20454;-78
2022/03/12 03:23:21;;;;;;;18.63;10.97;;;5.40;51.40;;;;;;5093131;28;20452;-76
2022/03/12 03:25:47;;;;;;;18.83;11.27;;;5.50;50.90;;;;;;5093448;28;20435;-76
2022/03/12 03:28:14;;;;;;;19.37;10.53;;;5.40;50.70;;;;;;5092455;28;20457;-77
2022/03/12 03:30:41;;;;;;;17.30;10.63;;;5.40;50.50;;;;;;5092684;28;20514;-76
2022/03/12 03:33:16;;;;;;;22.83;10.50;;;5.30;51.70;;;;;;5093330;28;20452;-76
2022/03/12 03:35:42;;;;;;;22.87;10.63;;;5.30;51.80;;;;;;5090270;28;20589;-77
2022/03/12 03:38:12;;;;;;;16.97;10.00;;;5.20;51.80;;;;;;5092470;28;20466;-74
2022/03/12 03:40:41;;;;;;;15.90;10.07;;;5.20;52.50;;;;;;5093212;28;20431;-77
2022/03/12 03:43:09;;;;;;;19.10;10.47;;;5.20;52.60;;;;;;5092725;28;20478;-76
2022/03/12 03:45:36;;;;;;;20.87;10.17;;;5.20;52.80;;;;;;5076186;28;20421;-79
2022/03/12 03:48:02;;;;;;;20.77;10.67;;;5.30;52.40;;;;;;5087356;28;20449;-77
2022/03/12 03:50:28;;;;;;;21.00;10.33;;;5.30;52.50;;;;;;5095048;28;20777;-77
2022/03/12 03:53:03;;;;;;;20.60;11.10;;;5.20;52.10;;;;;;5094613;28;20440;-76
2022/03/12 03:55:32;;;;;;;23.10;10.90;;;5.20;52.00;;;;;;5076588;28;20894;-75
2022/03/12 03:57:59;;;;;;;17.60;10.47;;;5.20;51.60;;;;;;5073985;28;20421;-78
2022/03/12 04:00:26;;;;;;;24.83;12.03;;;5.20;51.30;;;;;;5094340;28;20444;-78
2022/03/12 04:03:01;;;;;;;19.80;11.40;;;5.20;51.40;;;;;;5098679;28;20436;-77
2022/03/12 04:05:33;;;;;;;26.03;12.00;;;5.20;52.00;;;;;;5095305;28;20416;-78
2022/03/12 04:08:02;;;;;;;22.93;11.10;;;5.20;52.10;;;;;;5092460;28;20409;-79
2022/03/12 04:10:28;;;;;;;21.93;11.37;;;5.10;52.40;;;;;;5089020;28;20445;-78
2022/03/12 04:12:58;;;;;;;17.50;10.67;;;5.00;52.60;;;;;;5092971;28;20421;-77
2022/03/12 04:15:25;;;;;;;22.70;11.07;;;4.90;53.00;;;;;;5092301;28;20424;-79
2022/03/12 04:17:51;;;;;;;25.07;11.00;;;4.90;53.00;;;;;;5091695;28;20919;-74
2022/03/12 04:20:18;;;;;;;22.50;11.13;;;4.80;53.00;;;;;;5092166;28;20444;-77
2022/03/12 04:22:48;;;;;;;20.73;10.93;;;4.80;53.60;;;;;;5093496;28;20447;-78
2022/03/12 04:25:15;;;;;;;21.20;11.57;;;4.70;53.70;;;;;;5079570;28;20427;-75
2022/03/12 04:27:45;;;;;;;16.83;9.97;;;4.70;53.80;;;;;;5091611;28;20497;-78
2022/03/12 04:30:13;;;;;;;23.27;10.87;;;4.70;54.00;;;;;;5078625;28;20544;-77
2022/03/12 04:32:42;;;;;;;21.63;11.50;;;4.70;53.80;;;;;;5090440;28;20863;-77
2022/03/12 04:35:09;;;;;;;25.03;11.47;;;4.60;54.00;;;;;;5074520;28;20461;-77
2022/03/12 04:37:36;;;;;;;19.00;11.00;;;4.70;54.10;;;;;;5073670;28;20421;-77
2022/03/12 04:40:11;;;;;;;20.67;10.20;;;4.70;54.20;;;;;;5083505;28;20465;-78
2022/03/12 04:42:44;;;;;;;19.63;10.40;;;4.70;54.20;;;;;;5082854;28;20436;-78
2022/03/12 04:45:23;;;;;;;25.53;11.67;;;4.70;54.20;;;;;;5090052;28;20966;-78
2022/03/12 04:47:52;;;;;;;22.80;11.53;;;4.70;54.40;;;;;;5090494;28;20481;-76
2022/03/12 04:50:20;;;;;;;20.10;10.33;;;4.60;54.10;;;;;;5090871;28;20487;-78
2022/03/12 04:52:49;;;;;;;20.93;11.50;;;4.70;54.00;;;;;;5091323;28;20482;-78
2022/03/12 04:55:17;;;;;;;20.83;10.97;;;4.70;54.00;;;;;;5090920;28;20417;-77
2022/03/12 04:57:43;;;;;;;23.63;11.40;;;4.70;54.10;;;;;;5087836;28;20417;-79
2022/03/12 05:00:38;;;;;;;22.60;10.47;;;4.80;54.00;;;;;;5090206;28;20440;-77
2022/03/12 05:03:17;;;;;;;18.90;10.10;;;4.80;53.70;;;;;;5087952;28;20426;-77
2022/03/12 05:05:45;;;;;;;21.33;11.03;;;4.80;53.70;;;;;;5092300;28;20404;-77
2022/03/12 05:08:13;;;;;;;24.17;10.60;;;4.80;53.60;;;;;;5089862;28;20428;-77
2022/03/12 05:10:40;;;;;;;21.50;10.13;;;4.80;53.70;;;;;;5090425;28;20455;-77
2022/03/12 05:13:06;;;;;;;20.10;10.30;;;4.80;53.60;;;;;;5091402;28;20469;-76
2022/03/12 05:15:40;;;;;;;22.47;11.50;;;4.80;53.60;;;;;;5080884;28;20432;-77
2022/03/12 05:18:07;;;;;;;19.60;10.70;;;4.80;53.40;;;;;;5092805;28;20503;-76
2022/03/12 05:20:37;;;;;;;21.60;11.07;;;4.80;53.60;;;;;;5094536;28;20433;-77
2022/03/12 05:23:07;;;;;;;18.53;10.57;;;4.70;53.40;;;;;;5093527;28;20428;-77
2022/03/12 05:25:34;;;;;;;18.80;10.13;;;4.70;53.70;;;;;;5083247;28;20425;-77
2022/03/12 05:27:59;;;;;;;24.57;10.43;;;4.60;53.40;;;;;;5083494;28;20425;-76
2022/03/12 05:30:27;;;;;;;21.27;10.20;;;4.50;53.70;;;;;;5094341;28;20454;-77
2022/03/12 05:32:53;;;;;;;18.20;10.43;;;4.60;53.70;;;;;;5094169;28;20214;-77
2022/03/12 05:35:20;;;;;;;23.67;10.60;;;4.60;53.70;;;;;;5079893;28;20789;-78
2022/03/12 05:37:53;;;;;;;19.47;10.43;;;4.70;53.70;;;;;;5094615;28;20435;-79
2022/03/12 05:40:28;;;;;;;23.27;10.40;;;4.70;53.70;;;;;;5076234;28;20455;-75
2022/03/12 05:42:55;;;;;;;22.70;10.20;;;4.70;53.00;;;;;;5092028;28;20455;-76
2022/03/12 05:45:23;;;;;;;21.67;11.53;;;4.70;53.20;;;;;;5094272;28;20409;-77
2022/03/12 05:47:50;;;;;;;22.40;10.30;;;4.60;53.30;;;;;;5093556;28;20457;-75
2022/03/12 05:50:17;;;;;;;19.00;10.27;;;4.70;53.40;;;;;;5088872;28;20457;-78
2022/03/12 05:52:49;;;;;;;17.30;9.90;;;4.70;53.40;;;;;;5078406;28;20768;-77
2022/03/12 05:55:21;;;;;;;21.60;10.80;;;4.80;53.60;;;;;;5095354;28;20440;-76
2022/03/12 05:57:48;;;;;;;20.80;10.90;;;4.80;53.30;;;;;;5094268;28;20435;-76
2022/03/12 06:00:15;;;;;;;18.97;10.20;;;4.80;52.40;;;;;;5094438;28;20433;-77
2022/03/12 06:02:51;;;;;;;18.73;10.23;;;4.80;52.60;;;;;;5086132;28;21007;-75
2022/03/12 06:05:23;;;;;;;19.00;10.07;;;4.90;52.40;;;;;;5084094;28;20515;-77
2022/03/12 06:07:53;;;;;;;31.30;11.90;;;5.00;51.20;;;;;;5094079;28;20421;-77
2022/03/12 06:10:23;;;;;;;25.90;11.60;;;5.00;50.30;;;;;;5079329;28;20456;-77
2022/03/12 06:12:53;;;;;;;18.43;10.20;;;4.90;50.20;;;;;;5094118;28;20417;-75
2022/03/12 06:15:25;;;;;;;19.60;9.93;;;4.80;50.50;;;;;;5087729;28;20417;-76
2022/03/12 06:17:51;;;;;;;20.50;10.00;;;4.80;50.90;;;;;;5084603;28;20439;-77
2022/03/12 06:20:20;;;;;;;23.20;11.10;;;4.80;51.20;;;;;;5093869;28;20444;-76
2022/03/12 06:22:46;;;;;;;23.93;10.07;;;4.80;51.40;;;;;;5094131;28;20968;-77
2022/03/12 06:25:16;;;;;;;20.83;11.50;;;4.90;51.70;;;;;;5093891;28;20417;-77
2022/03/12 06:27:45;;;;;;;16.93;10.23;;;4.90;51.60;;;;;;5093402;28;20421;-77
2022/03/12 06:30:12;;;;;;;15.57;8.87;;;4.90;51.60;;;;;;5100124;28;20477;-74
2022/03/12 06:32:42;;;;;;;17.73;9.67;;;5.00;51.00;;;;;;5096494;28;20424;-75
2022/03/12 06:35:10;;;;;;;18.67;9.30;;;5.10;49.80;;;;;;5093600;28;20468;-76
2022/03/12 06:37:35;;;;;;;18.10;9.33;;;5.20;49.80;;;;;;5098105;28;20421;-76
2022/03/12 06:40:01;;;;;;;17.17;9.37;;;5.20;50.20;;;;;;5096326;28;20456;-75
2022/03/12 06:42:34;;;;;;;19.87;10.70;;;5.20;49.50;;;;;;5099580;28;20794;-78
2022/03/12 06:45:00;;;;;;;24.27;10.63;;;5.20;50.20;;;;;;5093646;28;20423;-76
2022/03/12 06:47:29;;;;;;;20.00;10.97;;;5.20;50.60;;;;;;5092453;28;20425;-77
2022/03/12 06:49:57;;;;;;;21.83;10.90;;;5.30;50.70;;;;;;5092184;28;20508;-78
2022/03/12 06:52:30;;;;;;;21.50;10.73;;;5.20;51.00;;;;;;5082415;28;20429;-75
2022/03/12 06:54:56;;;;;;;18.20;10.77;;;5.20;51.30;;;;;;5092675;28;20469;-77
2022/03/12 06:57:22;;;;;;;21.80;11.10;;;5.10;51.70;;;;;;5092574;28;20938;-77
2022/03/12 06:59:48;;;;;;;19.90;9.40;;;5.10;52.10;;;;;;5093084;28;20437;-76
2022/03/12 07:02:14;;;;;;;17.57;10.23;;;5.20;52.20;;;;;;5078704;28;20426;-76
2022/03/12 07:04:40;;;;;;;17.80;10.20;;;5.20;52.10;;;;;;5093102;28;20494;-77
2022/03/12 07:07:06;;;;;;;20.50;10.10;;;5.20;51.40;;;;;;5092047;28;20473;-77
2022/03/12 07:09:33;;;;;;;23.07;10.77;;;5.10;51.40;;;;;;5091694;28;20547;-78
2022/03/12 07:12:00;;;;;;;22.33;10.97;;;5.00;51.30;;;;;;5090112;28;20959;-77
2022/03/12 07:14:26;;;;;;;25.90;10.80;;;5.00;51.70;;;;;;5084117;28;20477;-77
2022/03/12 07:16:53;;;;;;;20.43;10.23;;;5.10;51.30;;;;;;5085650;28;20441;-75
2022/03/12 07:19:19;;;;;;;18.50;11.27;;;5.10;51.30;;;;;;5089856;28;20823;-75
2022/03/12 07:21:44;;;;;;;22.90;10.63;;;5.10;51.30;;;;;;5090159;28;20421;-75
2022/03/12 07:24:10;;;;;;;18.90;10.40;;;5.20;51.30;;;;;;5091103;28;20244;-76
2022/03/12 07:26:36;;;;;;;18.90;9.80;;;5.20;51.00;;;;;;5073075;28;20714;-75
2022/03/12 07:29:02;;;;;;;20.70;9.93;;;5.30;50.90;;;;;;5078870;28;20215;-76
2022/03/12 07:31:27;;;;;;;15.83;10.40;;;5.30;50.70;;;;;;5086541;28;20716;-76
2022/03/12 07:33:53;;;;;;;19.53;10.00;;;5.40;50.90;;;;;;5103641;28;20508;-75
2022/03/12 07:36:19;;;;;;;19.67;10.47;;;5.50;50.60;;;;;;5098160;28;20250;-76
2022/03/12 07:38:45;;;;;;;26.03;10.80;;;5.60;49.90;;;;;;5097003;28;20182;-76
2022/03/12 07:41:12;;;;;;;24.57;11.30;;;5.70;49.50;;;;;;5090634;28;20195;-76
2022/03/12 07:43:38;;;;;;;19.40;10.10;;;5.70;49.50;;;;;;5090879;28;20927;-76
2022/03/12 07:46:05;;;;;;;24.03;12.00;;;5.70;49.50;;;;;;5099312;28;20417;-75
2022/03/12 07:48:31;;;;;;;19.47;10.33;;;5.60;49.70;;;;;;5073813;28;20452;-74
2022/03/12 07:50:59;;;;;;;19.70;10.90;;;5.70;49.70;;;;;;5090131;28;20437;-76
2022/03/12 07:53:26;;;;;;;20.13;11.03;;;5.80;49.30;;;;;;5076436;28;20487;-77
2022/03/12 07:55:51;;;;;;;26.97;11.33;;;5.80;49.30;;;;;;5088357;28;20923;-77
2022/03/12 07:58:17;;;;;;;21.03;11.57;;;5.90;49.10;;;;;;5089943;28;20432;-74
2022/03/12 08:00:44;;;;;;;20.40;11.00;;;6.00;49.00;;;;;;5092161;28;20206;-74
2022/03/12 08:03:09;;;;;;;23.20;11.70;;;6.00;49.30;;;;;;5092518;28;20462;-75
2022/03/12 08:05:36;;;;;;;19.43;11.37;;;6.10;49.10;;;;;;5101446;28;20425;-75
2022/03/12 08:08:03;;;;;;;18.37;10.80;;;6.20;48.70;;;;;;5095353;28;20182;-73
2022/03/12 08:10:29;;;;;;;24.00;11.43;;;6.30;48.50;;;;;;5092199;28;20443;-77
2022/03/12 08:12:58;;;;;;;18.70;10.70;;;6.40;48.10;;;;;;5092967;28;20472;-77
2022/03/12 08:15:23;;;;;;;21.93;11.20;;;6.50;48.20;;;;;;5075360;28;20449;-73
2022/03/12 08:17:49;;;;;;;25.77;11.03;;;6.60;47.90;;;;;;5092415;28;20424;-76
2022/03/12 08:20:19;;;;;;;25.30;11.67;;;6.70;47.40;;;;;;5092626;28;20610;-75
2022/03/12 08:22:45;;;;;;;25.60;12.40;;;6.80;47.30;;;;;;5088198;28;20171;-75
2022/03/12 08:25:13;;;;;;;23.17;12.17;;;6.90;47.00;;;;;;5093400;28;20416;-74
2022/03/12 08:27:40;;;;;;;25.67;12.47;;;7.00;46.60;;;;;;5094251;28;21089;-74
2022/03/12 08:30:08;;;;;;;21.60;11.10;;;7.10;46.50;;;;;;5098863;28;20801;-74
2022/03/12 08:32:36;;;;;;;22.60;11.70;;;7.20;46.60;;;;;;5085943;28;20566;-74
2022/03/12 08:35:05;;;;;;;25.87;11.50;;;7.20;46.20;;;;;;5092136;28;20461;-76
2022/03/12 08:37:32;;;;;;;28.83;12.10;;;7.20;46.30;;;;;;5091877;28;20417;-76
2022/03/12 08:39:58;;;;;;;19.00;10.87;;;7.40;46.10;;;;;;5091933;28;20453;-74
2022/03/12 08:42:24;;;;;;;22.77;12.77;;;7.40;45.80;;;;;;5092290;28;20425;-75
2022/03/12 08:44:51;;;;;;;21.43;12.20;;;7.50;45.50;;;;;;5092663;28;20417;-76
2022/03/12 08:47:17;;;;;;;22.40;10.70;;;7.50;45.30;;;;;;5092901;28;20959;-76
2022/03/12 08:49:43;;;;;;;22.50;11.53;;;7.70;45.10;;;;;;5092284;28;20496;-76
2022/03/12 08:52:09;;;;;;;23.77;12.20;;;7.70;45.10;;;;;;5091981;28;20460;-75
2022/03/12 08:54:34;;;;;;;25.63;12.90;;;7.80;45.10;;;;;;5077362;28;20583;-75
2022/03/12 08:57:00;;;;;;;25.07;12.57;;;7.80;45.30;;;;;;5095789;28;20231;-75
2022/03/12 08:59:26;;;;;;;27.63;11.50;;;8.00;45.30;;;;;;5094127;28;20747;-77
2022/03/12 09:01:52;;;;;;;21.80;12.30;;;8.10;45.00;;;;;;5093898;28;20227;-76
2022/03/12 09:04:19;;;;;;;26.50;11.97;;;8.20;44.70;;;;;;5098024;28;20191;-76
2022/03/12 09:06:46;;;;;;;25.03;11.60;;;8.30;43.90;;;;;;5094992;28;20684;-76
2022/03/12 09:09:12;;;;;;;28.33;12.10;;;8.30;43.90;;;;;;5094760;28;20538;-75
2022/03/12 09:11:38;;;;;;;24.17;12.77;;;8.50;43.90;;;;;;5081234;28;20426;-76
2022/03/12 09:14:04;;;;;;;24.30;13.40;;;8.50;43.70;;;;;;5091795;28;20567;-75
2022/03/12 09:16:30;;;;;;;24.70;12.63;;;8.60;43.90;;;;;;5094276;28;20543;-75
2022/03/12 09:18:56;;;;;;;23.77;13.00;;;8.70;43.70;;;;;;5094411;28;20231;-75
2022/03/12 09:21:22;;;;;;;29.50;14.80;;;8.80;43.10;;;;;;5094121;28;20448;-75
2022/03/12 09:23:47;;;;;;;24.47;13.07;;;8.80;43.00;;;;;;5094893;28;20429;-75
2022/03/12 09:26:14;;;;;;;24.23;13.27;;;8.90;42.80;;;;;;5094473;28;20187;-75
2022/03/12 09:28:41;;;;;;;21.50;12.30;;;9.00;43.00;;;;;;5082734;28;20182;-75
2022/03/12 09:31:06;;;;;;;26.93;13.03;;;9.10;42.80;;;;;;5094470;28;20460;-77
2022/03/12 09:33:32;;;;;;;25.47;12.50;;;9.30;42.20;;;;;;5094957;28;20815;-77
2022/03/12 09:35:59;;;;;;;25.30;12.43;;;9.40;42.00;;;;;;5094311;28;20183;-75
2022/03/12 09:38:25;;;;;;;27.60;13.70;;;9.40;42.00;;;;;;5094549;28;20421;-77
2022/03/12 09:40:51;;;;;;;25.97;13.47;;;9.50;42.20;;;;;;5094744;28;20452;-75
2022/03/12 09:43:17;;;;;;;25.73;13.00;;;9.60;41.80;;;;;;5095429;28;20425;-75
2022/03/12 09:45:43;;;;;;;27.73;13.70;;;9.80;41.90;;;;;;5083791;28;20429;-76
2022/03/12 09:48:09;;;;;;;23.60;12.67;;;10.00;41.40;;;;;;5093617;28;20480;-76
2022/03/12 09:50:36;;;;;;;26.40;13.67;;;10.20;40.80;;;;;;5094594;28;20513;-77
2022/03/12 09:53:02;;;;;;;27.47;13.13;;;10.30;40.80;;;;;;5094622;28;20838;-77
2022/03/12 09:55:27;;;;;;;26.67;13.33;;;10.40;40.40;;;;;;5095078;28;20424;-77
2022/03/12 09:57:53;;;;;;;26.10;13.30;;;10.40;40.30;;;;;;5094131;28;20421;-77
2022/03/12 10:00:19;;;;;;;25.20;13.33;;;10.40;40.70;;;;;;5094377;28;20255;-75
2022/03/12 10:02:46;;;;;;;30.13;13.70;;;10.40;40.60;;;;;;5095819;28;20264;-76
2022/03/12 10:05:13;;;;;;;25.47;14.00;;;10.50;40.60;;;;;;5082247;28;20550;-76
2022/03/12 10:07:41;;;;;;;25.60;14.00;;;10.60;40.40;;;;;;5094201;28;20432;-76
2022/03/12 10:10:14;;;;;;;25.43;13.90;;;10.60;40.70;;;;;;5093497;28;20854;-78
2022/03/12 10:12:39;;;;;;;23.17;13.60;;;10.70;40.80;;;;;;5093500;28;20485;-76
2022/03/12 10:15:05;;;;;;;25.50;13.30;;;10.80;41.20;;;;;;5095353;28;20553;-76
2022/03/12 10:17:31;;;;;;;24.93;14.00;;;10.90;41.40;;;;;;5096155;28;20171;-78
2022/03/12 10:19:57;;;;;;;24.00;12.63;;;11.10;41.80;;;;;;5079583;28;20445;-77
2022/03/12 10:22:23;;;;;;;32.40;14.33;;;11.30;41.50;;;;;;5095904;28;20182;-77
2022/03/12 10:24:50;;;;;;;26.60;14.40;;;11.40;41.40;;;;;;5094915;28;20934;-77
2022/03/12 10:27:16;;;;;;;27.27;13.50;;;11.40;41.50;;;;;;5094651;28;20432;-77
2022/03/12 10:29:41;;;;;;;25.87;13.57;;;11.50;41.50;;;;;;5094902;28;20449;-77
2022/03/12 10:32:24;;;;;;;24.73;13.07;;;11.70;41.60;;;;;;5095822;28;20202;-77
2022/03/12 10:34:52;;;;;;;29.63;14.00;;;11.90;41.00;;;;;;5097849;28;20222;-76
2022/03/12 10:37:23;;;;;;;26.93;13.70;;;12.00;40.80;;;;;;5086600;28;20433;-75
2022/03/12 10:40:03;;;;;;;30.97;14.87;;;12.00;40.70;;;;;;5103485;28;20562;-76
2022/03/12 10:42:31;;;;;;;26.93;14.07;;;12.00;40.20;;;;;;5091231;28;20577;-76
2022/03/12 10:45:09;;;;;;;29.43;15.40;;;12.00;40.20;;;;;;5084140;28;20456;-76
2022/03/12 10:47:40;;;;;;;26.73;14.77;;;12.00;40.60;;;;;;5084725;28;20777;-76
2022/03/12 10:50:10;;;;;;;29.63;15.17;;;12.30;40.30;;;;;;5087406;28;20453;-76
2022/03/12 10:52:43;;;;;;;28.00;13.70;;;12.50;39.90;;;;;;5095701;28;20422;-77
2022/03/12 10:55:22;;;;;;;26.47;14.90;;;12.60;40.00;;;;;;5092574;28;20476;-77
2022/03/12 10:57:58;;;;;;;28.90;15.07;;;12.80;40.00;;;;;;5074892;28;20421;-76
2022/03/12 11:00:25;;;;;;;37.27;14.63;;;12.90;39.80;;;;;;5094581;28;20436;-78
2022/03/12 11:02:59;;;;;;;28.77;14.97;;;13.10;39.50;;;;;;5093880;28;20508;-75
2022/03/12 11:05:35;;;;;;;28.80;14.77;;;13.30;39.10;;;;;;5094343;28;20412;-78
2022/03/12 11:08:14;;;;;;;31.73;15.20;;;13.50;38.80;;;;;;5097418;28;20413;-77
2022/03/12 11:10:52;;;;;;;25.40;14.30;;;13.60;38.70;;;;;;5085775;28;20439;-78
2022/03/12 11:13:44;;;;;;;27.50;14.90;;;13.90;38.60;;;;;;5087085;28;20544;-78
2022/03/12 11:16:20;;;;;;;30.97;15.07;;;14.20;39.00;;;;;;5096091;28;20418;-77
2022/03/12 11:18:52;;;;;;;25.60;14.13;;;14.50;38.60;;;;;;5080514;28;20439;-77
2022/03/12 11:21:53;;;;;;;26.17;14.77;;;14.70;37.60;;;;;;5101177;28;20466;-76
2022/03/12 11:24:42;;;;;;;25.37;13.63;;;15.10;37.10;;;;;;5096686;28;20537;-77
2022/03/12 11:27:07;;;;;;;30.00;15.40;;;15.00;37.00;;;;;;5092867;28;20531;-77
2022/03/12 11:29:34;;;;;;;24.73;14.20;;;14.70;37.40;;;;;;5093298;28;21001;-77
2022/03/12 11:32:05;;;;;;;23.80;13.70;;;14.50;38.60;;;;;;5092907;28;20181;-77
2022/03/12 11:34:38;;;;;;;29.70;14.67;;;14.50;38.80;;;;;;5094774;28;20467;-76
2022/03/12 11:37:15;;;;;;;25.33;14.27;;;14.60;39.60;;;;;;5095724;28;20460;-76
2022/03/12 11:39:48;;;;;;;28.70;16.07;;;14.60;40.30;;;;;;5092845;28;20441;-78
2022/03/12 11:42:26;;;;;;;23.63;13.43;;;14.40;40.80;;;;;;5093228;28;20410;-77
2022/03/12 11:44:52;;;;;;;23.70;13.10;;;14.30;41.20;;;;;;5092858;28;20417;-78
2022/03/12 11:47:21;;;;;;;22.57;13.40;;;14.40;41.50;;;;;;5092519;28;20796;-77
2022/03/12 11:49:48;;;;;;;24.70;12.87;;;14.20;41.60;;;;;;5091809;28;20470;-76
2022/03/12 11:52:16;;;;;;;28.10;14.80;;;14.20;41.80;;;;;;5092569;28;20409;-75
2022/03/12 11:54:43;;;;;;;23.77;12.00;;;14.20;41.60;;;;;;5083682;28;20979;-78
2022/03/12 11:57:11;;;;;;;24.20;12.70;;;14.20;42.30;;;;;;5093940;28;20789;-75
2022/03/12 11:59:38;;;;;;;21.57;11.03;;;14.20;42.00;;;;;;5092089;28;20908;-76
2022/03/12 12:02:24;;;;;;;22.73;11.50;;;14.30;42.70;;;;;;5092994;28;20419;-77
2022/03/12 12:04:52;;;;;;;26.23;12.87;;;14.30;42.80;;;;;;5076848;28;20429;-74
2022/03/12 12:07:18;;;;;;;20.17;12.40;;;14.40;42.20;;;;;;5093101;28;20429;-78
2022/03/12 12:09:44;;;;;;;26.03;13.50;;;14.60;41.80;;;;;;5093951;28;20974;-78
2022/03/12 12:12:13;;;;;;;22.40;11.97;;;14.80;41.90;;;;;;5077021;28;20440;-77
2022/03/12 12:14:43;;;;;;;22.87;11.53;;;14.80;41.10;;;;;;5089546;28;20220;-78
2022/03/12 12:17:10;;;;;;;21.50;11.83;;;14.80;41.20;;;;;;5093532;28;20425;-78
2022/03/12 12:19:36;;;;;;;20.50;11.30;;;14.80;41.60;;;;;;5092839;28;20436;-78
2022/03/12 12:22:04;;;;;;;17.23;10.17;;;15.20;41.80;;;;;;5093262;28;20524;-79
2022/03/12 12:24:39;;;;;;;22.70;11.33;;;15.60;41.20;;;;;;5092363;28;20439;-77
2022/03/12 12:27:14;;;;;;;25.80;11.60;;;16.20;39.60;;;;;;5092560;28;20469;-77
2022/03/12 12:29:47;;;;;;;20.90;11.30;;;16.80;38.60;;;;;;5087750;28;21076;-77
2022/03/12 12:32:19;;;;;;;22.53;11.07;;;16.90;37.80;;;;;;5091990;28;20413;-75
2022/03/12 12:35:14;;;;;;;18.93;11.87;;;16.70;38.00;;;;;;5092007;28;20544;-77
2022/03/12 12:38:02;;;;;;;21.70;11.33;;;16.60;37.80;;;;;;5073504;28;20421;-75
2022/03/12 12:40:29;;;;;;;23.50;11.57;;;16.20;38.60;;;;;;5092207;28;20461;-77
2022/03/12 12:42:57;;;;;;;22.57;11.50;;;16.00;39.60;;;;;;5092723;28;20417;-75